Terminal Aerodrome Forecast
Issued by NWS

Home | Current Version | Previous Version | Text Only | Print | Product List | Glossary On
Versions: 1 2 3 4 5 6 7 8 9 10 11 12 13 14 15 16 17 18
000
FTUS44 KJAN 211744
TAFGTR
TAF
KGTR 211744Z 2118/2218 15010KT 6SM -RA OVC005
     FM212000 11006KT P6SM SHRA BKN010 OVC025
     FM220600 03003KT 5SM BR VCSH BKN005 OVC015
     FM220900 05003KT 2SM BR OVC005=

USA.gov is the U.S. government's official web portal to all federal, state and local government web resources and services.